^^
Meteo Knjazevac Station Historical Data
Daily Summary for February 17, 2021 Units:  Metric    English   Both
Daily Weekly Monthly Yearly Custom
  High: Low: Average:
Temperature: 31 °C 18.2 °C 22.8 °C
Dew Point: 23.6 °C 18.1 °C 20.3 °C
Humidity: 99% 60% 87%
Wind Speed: 19.3km/h 0km/h 5km/h
Wind Gust: 32.2km/h - -
Wind- - SW
Pressure: 1014.8 hPa 1009.4 hPa -
Precipitation: 2.79 mm    
Historical Graphs
 
 
Tabular Data for February 17, 2021
Time Temperature Dew Point Pressure Wind Wind Speed Wind Gust Humidity Rainfall Rate (Hourly) solar Conditions
00:00 19.4 °C 19.2 °C 1014.4 hPa SW 3.2 km/h 16.1 km/h 99% 0.25 mm 0 W/m2
00:10 19.3 °C 19.2 °C 1014.8 hPa SW 8 km/h 14.5 km/h 99% 0 mm 0 W/m2
00:20 19.3 °C 19.2 °C 1014.4 hPa SW 4.8 km/h 12.9 km/h 99% 0 mm 0 W/m2
00:30 19.3 °C 19.2 °C 1014.1 hPa South 3.2 km/h 6.4 km/h 99% 0 mm 0 W/m2
00:40 19.3 °C 19.2 °C 1014.1 hPa SW 3.2 km/h 6.4 km/h 99% 0 mm 0 W/m2
00:50 19.2 °C 19.1 °C 1013.8 hPa WSW 3.2 km/h 11.3 km/h 99% 0 mm 0 W/m2
01:00 19.3 °C 19.1 °C 1013.4 hPa SW 8 km/h 11.3 km/h 99% 0.76 mm 0 W/m2
01:10 19.3 °C 19.2 °C 1013.4 hPa SW 4.8 km/h 11.3 km/h 99% 0.76 mm 0 W/m2
01:20 19.3 °C 19.1 °C 1012.8 hPa South 1.6 km/h 9.7 km/h 99% 0 mm 0 W/m2
01:30 19.2 °C 19.1 °C 1013.1 hPa NW 4.8 km/h 11.3 km/h 99% 0.25 mm 0 W/m2
01:40 19.2 °C 19 °C 1013.4 hPa WSW 4.8 km/h 12.9 km/h 99% 0.25 mm 0 W/m2
01:50 19.1 °C 18.9 °C 1013.8 hPa WSW 4.8 km/h 17.7 km/h 99% 0 mm 0 W/m2
02:00 19 °C 18.8 °C 1013.4 hPa WNW 3.2 km/h 9.7 km/h 99% 0 mm 0 W/m2
02:10 18.9 °C 18.7 °C 1013.4 hPa NW 3.2 km/h 11.3 km/h 99% 0 mm 0 W/m2
02:20 19 °C 18.8 °C 1013.4 hPa NNE 3.2 km/h 6.4 km/h 99% 0 mm 0 W/m2
02:30 19 °C 18.8 °C 1013.4 hPa NNE 3.2 km/h 6.4 km/h 99% 0 mm 0 W/m2
02:40 18.9 °C 18.7 °C 1013.1 hPa NNE 4.8 km/h 9.7 km/h 99% 0 mm 0 W/m2
02:50 18.9 °C 18.7 °C 1013.1 hPa North 1.6 km/h 8 km/h 99% 0 mm 0 W/m2
03:00 18.9 °C 18.7 °C 1013.1 hPa Calm   3.2 km/h 99% 0 mm 0 W/m2
03:10 18.8 °C 18.7 °C 1013.4 hPa NW 3.2 km/h 8 km/h 99% 0 mm 0 W/m2
03:20 18.8 °C 18.7 °C 1013.4 hPa NW 3.2 km/h 8 km/h 99% 0 mm 0 W/m2
03:30 18.8 °C 18.7 °C 1013.4 hPa NNW 3.2 km/h 6.4 km/h 99% 0 mm 0 W/m2
03:40 18.8 °C 18.7 °C 1013.4 hPa NNW 1.6 km/h 6.4 km/h 99% 0 mm 0 W/m2
03:50 18.7 °C 18.6 °C 1013.4 hPa NW 1.6 km/h 8 km/h 99% 0 mm 0 W/m2
04:00 18.7 °C 18.6 °C 1013.4 hPa NW 3.2 km/h 6.4 km/h 99% 0 mm 0 W/m2
04:10 18.6 °C 18.4 °C 1013.4 hPa Calm   4.8 km/h 99% 0 mm 0 W/m2
04:20 18.6 °C 18.4 °C 1013.4 hPa NNW 1.6 km/h 3.2 km/h 99% 0 mm 0 W/m2
04:30 18.5 °C 18.3 °C 1013.4 hPa NNW 1.6 km/h 3.2 km/h 99% 0 mm 0 W/m2
04:40 18.5 °C 18.3 °C 1013.4 hPa Calm   4.8 km/h 99% 0 mm 0 W/m2
04:50 18.4 °C 18.2 °C 1013.4 hPa NNW 1.6 km/h 3.2 km/h 99% 0 mm 0 W/m2
05:00 18.4 °C 18.2 °C 1013.4 hPa NNW 3.2 km/h 4.8 km/h 99% 0 mm 0 W/m2
05:10 18.3 °C 18.2 °C 1013.4 hPa NNW 1.6 km/h 3.2 km/h 99% 0 mm 2 W/m2
05:20 18.3 °C 18.2 °C 1013.4 hPa North 1.6 km/h 3.2 km/h 99% 0 mm 5 W/m2
05:30 18.2 °C 18.1 °C 1013.4 hPa Calm   3.2 km/h 99% 0 mm 3 W/m2
05:40 18.2 °C 18.1 °C 1013.8 hPa NNW 3.2 km/h 4.8 km/h 99% 0 mm 6 W/m2
05:50 18.2 °C 18.1 °C 1013.8 hPa NW 1.6 km/h 6.4 km/h 99% 0 mm 8 W/m2
06:00 18.2 °C 18.1 °C 1013.8 hPa NNW 1.6 km/h 4.8 km/h 99% 0 mm 7 W/m2
06:10 18.2 °C 18.1 °C 1013.8 hPa NNW 1.6 km/h 3.2 km/h 99% 0.51 mm 10 W/m2
06:20 18.2 °C 18.1 °C 1013.4 hPa WNW 3.2 km/h 8 km/h 99% 0.25 mm 14 W/m2
06:30 18.2 °C 18.1 °C 1013.4 hPa WNW 1.6 km/h 8 km/h 99% 0 mm 15 W/m2
06:40 18.3 °C 18.2 °C 1013.4 hPa NW 1.6 km/h 6.4 km/h 99% 0 mm 12 W/m2
06:50 18.4 °C 18.2 °C 1013.4 hPa WNW 1.6 km/h 6.4 km/h 99% 0 mm 20 W/m2
07:00 18.3 °C 18.2 °C 1013.4 hPa Calm   3.2 km/h 99% 0 mm 26 W/m2
07:10 18.4 °C 18.2 °C 1013.4 hPa WNW 1.6 km/h 3.2 km/h 99% 0 mm 34 W/m2
07:20 18.4 °C 18.2 °C 1013.4 hPa NNW 3.2 km/h 6.4 km/h 99% 0 mm 45 W/m2
07:30 18.5 °C 18.3 °C 1013.4 hPa Calm   6.4 km/h 99% 0 mm 56 W/m2
07:40 18.6 °C 18.4 °C 1013.4 hPa NNW 1.6 km/h 3.2 km/h 99% 0 mm 79 W/m2
07:50 18.6 °C 18.4 °C 1013.1 hPa NW 1.6 km/h 4.8 km/h 99% 0 mm 101 W/m2
08:00 18.8 °C 18.7 °C 1013.4 hPa Calm   4.8 km/h 99% 0 mm 129 W/m2
08:10 18.9 °C 18.7 °C 1013.4 hPa North 1.6 km/h 4.8 km/h 99% 0.25 mm 153 W/m2
08:20 19.1 °C 18.9 °C 1013.4 hPa North 3.2 km/h 6.4 km/h 99% 0 mm 200 W/m2
08:30 19.2 °C 19.1 °C 1013.4 hPa North 1.6 km/h 8 km/h 99% 0 mm 112 W/m2
08:40 19.4 °C 19.2 °C 1013.8 hPa North 1.6 km/h 4.8 km/h 99% 0 mm 122 W/m2
08:50 19.4 °C 19.3 °C 1013.4 hPa NNE 1.6 km/h 6.4 km/h 99% 0 mm 217 W/m2
09:00 19.6 °C 19.4 °C 1013.4 hPa NNE 1.6 km/h 8 km/h 99% 0 mm 259 W/m2
09:10 19.7 °C 19.6 °C 1013.4 hPa NNE 3.2 km/h 8 km/h 99% 0 mm 184 W/m2
09:20 19.8 °C 19.6 °C 1013.4 hPa NE 3.2 km/h 8 km/h 99% 0 mm 396 W/m2
09:30 20.1 °C 19.9 °C 1013.4 hPa NNE 3.2 km/h 8 km/h 99% 0 mm 353 W/m2
09:40 20.4 °C 20.3 °C 1013.4 hPa Calm   4.8 km/h 99% 0 mm 740 W/m2
09:50 21.2 °C 21.1 °C 1013.4 hPa North 1.6 km/h 6.4 km/h 99% 0 mm 764 W/m2
10:00 22.1 °C 21.9 °C 1013.4 hPa North 8 km/h 11.3 km/h 99% 0 mm 786 W/m2
10:10 22.6 °C 21.9 °C 1013.4 hPa North 9.7 km/h 14.5 km/h 96% 0 mm 807 W/m2
10:20 23.1 °C 22 °C 1013.4 hPa NNE 4.8 km/h 14.5 km/h 94% 0 mm 747 W/m2
10:30 23.3 °C 22.1 °C 1013.4 hPa NNE 4.8 km/h 14.5 km/h 93% 0 mm 845 W/m2
10:40 23.7 °C 22.6 °C 1013.4 hPa North 8 km/h 16.1 km/h 93% 0 mm 836 W/m2
10:50 24.2 °C 22.5 °C 1013.1 hPa NNE 4.8 km/h 12.9 km/h 90% 0 mm 440 W/m2
11:00 24.3 °C 22.4 °C 1013.1 hPa North 8 km/h 16.1 km/h 89% 0 mm 640 W/m2
11:10 24.5 °C 22.6 °C 1013.1 hPa NNW 8 km/h 14.5 km/h 89% 0 mm 604 W/m2
11:20 24.6 °C 22.1 °C 1013.1 hPa North 9.7 km/h 19.3 km/h 86% 0 mm 510 W/m2
11:30 24.7 °C 22.2 °C 1013.1 hPa NNE 8 km/h 14.5 km/h 86% 0 mm 441 W/m2
11:40 24.8 °C 22.7 °C 1013.1 hPa North 3.2 km/h 14.5 km/h 88% 0 mm 938 W/m2
11:50 25.3 °C 22.6 °C 1012.8 hPa North 3.2 km/h 14.5 km/h 85% 0 mm 551 W/m2
12:00 25.5 °C 22.8 °C 1012.8 hPa North 4.8 km/h 16.1 km/h 85% 0 mm 951 W/m2
12:10 26.2 °C 23.2 °C 1012.8 hPa North 4.8 km/h 17.7 km/h 84% 0 mm 956 W/m2
12:20 26.7 °C 23.6 °C 1012.8 hPa North 3.2 km/h 16.1 km/h 83% 0 mm 767 W/m2
12:30 26.8 °C 22.8 °C 1012.8 hPa North 8 km/h 14.5 km/h 79% 0 mm 960 W/m2
12:40 27.1 °C 23.2 °C 1012.4 hPa North 4.8 km/h 16.1 km/h 79% 0 mm 960 W/m2
12:50 27.2 °C 23.3 °C 1012.4 hPa North 4.8 km/h 17.7 km/h 79% 0 mm 727 W/m2
13:00 27.4 °C 23.5 °C 1012.4 hPa NNW 9.7 km/h 19.3 km/h 79% 0 mm 583 W/m2
13:10 27.7 °C 23.5 °C 1012.1 hPa North 4.8 km/h 22.5 km/h 78% 0 mm 659 W/m2
13:20 28 °C 23.6 °C 1012.1 hPa NNW 3.2 km/h 14.5 km/h 77% 0 mm 945 W/m2
13:30 28 °C 23.2 °C 1012.1 hPa North 8 km/h 16.1 km/h 75% 0 mm 479 W/m2
13:40 28.1 °C 23.4 °C 1011.7 hPa NNW 3.2 km/h 12.9 km/h 76% 0 mm 466 W/m2
13:50 28 °C 23.2 °C 1011.7 hPa NNW 8 km/h 19.3 km/h 75% 0 mm 409 W/m2
14:00 28.2 °C 23.1 °C 1011.7 hPa North 4.8 km/h 12.9 km/h 74% 0 mm 906 W/m2
14:10 28.6 °C 23.3 °C 1011.4 hPa North 8 km/h 17.7 km/h 73% 0 mm 701 W/m2
14:20 28.6 °C 23.3 °C 1011.4 hPa North 8 km/h 20.9 km/h 73% 0 mm 432 W/m2
14:30 28.6 °C 23.1 °C 1011.1 hPa North 9.7 km/h 19.3 km/h 72% 0 mm 862 W/m2
14:40 28.9 °C 23.6 °C 1011.1 hPa North 4.8 km/h 20.9 km/h 73% 0 mm 726 W/m2
14:50 29.3 °C 23.3 °C 1011.1 hPa North 8 km/h 20.9 km/h 70% 0 mm 752 W/m2
15:00 29.6 °C 23.3 °C 1011.1 hPa NNW 8 km/h 22.5 km/h 69% 0 mm 639 W/m2
15:10 29.6 °C 23.3 °C 1010.7 hPa North 8 km/h 19.3 km/h 69% 0 mm 785 W/m2
15:20 29.9 °C 23.3 °C 1010.4 hPa North 8 km/h 16.1 km/h 68% 0 mm 311 W/m2
15:30 29.8 °C 23 °C 1010.4 hPa North 8 km/h 19.3 km/h 67% 0 mm 276 W/m2
15:40 29.9 °C 23.2 °C 1010.4 hPa NNW 1.6 km/h 19.3 km/h 67% 0 mm 680 W/m2
15:50 30.4 °C 23.6 °C 1010.4 hPa North 1.6 km/h 12.9 km/h 67% 0 mm 684 W/m2
16:00 30.7 °C 22.8 °C 1010 hPa NNE 3.2 km/h 19.3 km/h 63% 0 mm 665 W/m2
16:10 31 °C 22.3 °C 1010 hPa ENE 8 km/h 24.1 km/h 60% 0 mm 638 W/m2
16:20 30.8 °C 22.2 °C 1010 hPa ENE 4.8 km/h 25.7 km/h 60% 0 mm 173 W/m2
16:30 30.2 °C 22.3 °C 1010 hPa NE 4.8 km/h 16.1 km/h 63% 0 mm 122 W/m2
16:40 29.6 °C 22 °C 1010 hPa NNE 1.6 km/h 20.9 km/h 64% 0 mm 87 W/m2
16:50 29.1 °C 21.8 °C 1010 hPa North 1.6 km/h 12.9 km/h 65% 0 mm 76 W/m2
17:00 28.8 °C 21.6 °C 1009.7 hPa North 3.2 km/h 12.9 km/h 65% 0 mm 95 W/m2
17:10 28.6 °C 21.6 °C 1010 hPa NW 1.6 km/h 9.7 km/h 66% 0 mm 110 W/m2
17:20 28.5 °C 22 °C 1009.7 hPa NNW 1.6 km/h 4.8 km/h 68% 0 mm 106 W/m2
17:30 28.3 °C 22.1 °C 1009.7 hPa NW 3.2 km/h 6.4 km/h 69% 0 mm 69 W/m2
17:40 28.1 °C 21.8 °C 1009.7 hPa NNW 3.2 km/h 9.7 km/h 69% 0 mm 38 W/m2
17:50 27.8 °C 21.8 °C 1009.4 hPa WNW 3.2 km/h 9.7 km/h 70% 0 mm 34 W/m2
18:00 27.6 °C 21.6 °C 1009.7 hPa NNW 8 km/h 11.3 km/h 70% 0 mm 36 W/m2
18:10 27.4 °C 21.4 °C 1009.4 hPa NNW 3.2 km/h 11.3 km/h 70% 0 mm 39 W/m2
18:20 27.3 °C 21.8 °C 1009.4 hPa NNW 4.8 km/h 9.7 km/h 72% 0 mm 37 W/m2
18:30 27.2 °C 22.1 °C 1009.4 hPa NW 1.6 km/h 9.7 km/h 74% 0 mm 44 W/m2
18:40 26.9 °C 21.9 °C 1009.4 hPa NNW 3.2 km/h 9.7 km/h 74% 0 mm 39 W/m2
18:50 26.8 °C 22.1 °C 1009.4 hPa West 3.2 km/h 9.7 km/h 75% 0 mm 32 W/m2
19:00 26.5 °C 22.3 °C 1009.7 hPa SSW 3.2 km/h 4.8 km/h 78% 0 mm 26 W/m2
19:10 26.3 °C 22.4 °C 1009.4 hPa West 3.2 km/h 8 km/h 79% 0 mm 10 W/m2
19:20 26.1 °C 22.1 °C 1010 hPa West 3.2 km/h 9.7 km/h 79% 0 mm 6 W/m2
19:30 25.6 °C 21.8 °C 1010 hPa WSW 9.7 km/h 19.3 km/h 80% 0 mm 10 W/m2
19:40 25.2 °C 20.8 °C 1010.4 hPa WSW 12.9 km/h 20.9 km/h 77% 0 mm 5 W/m2
19:50 24.7 °C 19.9 °C 1010.4 hPa West 9.7 km/h 22.5 km/h 75% 0 mm 2 W/m2
20:00 24.2 °C 20.3 °C 1010.4 hPa WSW 16.1 km/h 32.2 km/h 79% 0 mm 0 W/m2
20:10 23.2 °C 19.8 °C 1010.7 hPa SW 12.9 km/h 32.2 km/h 81% 0 mm 0 W/m2
20:20 22.7 °C 19.7 °C 1010.4 hPa SW 12.9 km/h 19.3 km/h 83% 0 mm 0 W/m2
20:30 22.6 °C 19 °C 1010.4 hPa SW 9.7 km/h 19.3 km/h 80% 0 mm 0 W/m2
20:40 22.4 °C 18.8 °C 1010.4 hPa WSW 8 km/h 24.1 km/h 80% 0 mm 0 W/m2
20:50 22.1 °C 18.5 °C 1010.7 hPa WSW 8 km/h 17.7 km/h 80% 0 mm 0 W/m2
21:00 22.1 °C 18.7 °C 1010.4 hPa WSW 3.2 km/h 14.5 km/h 81% 0 mm 0 W/m2
21:10 22 °C 18.6 °C 1010.4 hPa WSW 4.8 km/h 11.3 km/h 81% 0 mm 0 W/m2
21:20 22 °C 18.6 °C 1010.7 hPa Calm   8 km/h 81% 0 mm 0 W/m2
21:30 21.9 °C 19.1 °C 1011.1 hPa South 3.2 km/h 8 km/h 84% 0 mm 0 W/m2
21:40 21.8 °C 19 °C 1011.1 hPa South 3.2 km/h 8 km/h 84% 0 mm 0 W/m2
21:50 21.8 °C 19.2 °C 1011.1 hPa SW 1.6 km/h 4.8 km/h 85% 0 mm 0 W/m2
22:00 21.7 °C 19.1 °C 1011.4 hPa SW 19.3 km/h 25.7 km/h 85% 0 mm 0 W/m2
22:10 21.4 °C 18.8 °C 1011.4 hPa SW 16.1 km/h 29 km/h 85% 0 mm 0 W/m2
22:20 21.1 °C 18.7 °C 1011.4 hPa SW 14.5 km/h 24.1 km/h 86% 0 mm 0 W/m2
22:30 20.7 °C 18.6 °C 1011.7 hPa SW 19.3 km/h 25.7 km/h 88% 0 mm 0 W/m2
22:40 20.4 °C 18.5 °C 1011.7 hPa SW 14.5 km/h 27.4 km/h 89% 0 mm 0 W/m2
22:50 20.3 °C 18.4 °C 1012.1 hPa SW 9.7 km/h 24.1 km/h 89% 0 mm 0 W/m2
23:00 20.3 °C 18.4 °C 1011.7 hPa SW 11.3 km/h 19.3 km/h 89% 0 mm 0 W/m2
23:10 20.3 °C 18.6 °C 1011.7 hPa SW 4.8 km/h 12.9 km/h 90% 0 mm 0 W/m2
23:20 20.3 °C 18.4 °C 1012.1 hPa SW 8 km/h 12.9 km/h 89% 0 mm 0 W/m2
23:30 20.3 °C 18.4 °C 1012.1 hPa SW 9.7 km/h 12.9 km/h 89% 0 mm 0 W/m2
23:40 20.3 °C 18.6 °C 1012.1 hPa SW 9.7 km/h 11.3 km/h 90% 0 mm 0 W/m2
23:50 20.2 °C 18.5 °C 1012.1 hPa SW 8 km/h 12.9 km/h 90% 0 mm 0 W/m2
Knjazevac, Serbia
Compliments of Weather Underground - 2 mb